Time;durP1;ratioP1;P1;durP2;ratioP2;P2;SDS_P1;SDS_P2;PMS_P1;PMS_P2;Temp;Humidity;BMP_temperature;BMP_pressure;BME280_temperature;BME280_humidity;BME280_pressure;Samples;Min_cycle;Max_cycle;Signal;HPM_P1;HPM_P2
2023/08/11 00:00:28;;;;;;;6.60;2.90;;;18.20;65.40;;;19.95;48.35;98108.72;5031867;28;20520;-58
2023/08/11 00:02:57;;;;;;;5.80;3.08;;;18.10;66.30;;;19.91;48.56;98108.31;5031920;28;20042;-59
2023/08/11 00:05:24;;;;;;;5.05;3.20;;;18.10;66.50;;;19.88;48.60;98106.03;5034009;28;20041;-59
2023/08/11 00:07:54;;;;;;;3.97;2.80;;;18.10;66.50;;;19.86;48.46;98106.22;5032989;28;20046;-57
2023/08/11 00:10:23;;;;;;;3.13;2.70;;;18.10;66.40;;;19.85;48.29;98111.84;5030986;28;20045;-58
2023/08/11 00:12:51;;;;;;;4.15;3.00;;;18.10;66.30;;;19.84;48.22;98115.59;5032929;28;20045;-58
2023/08/11 00:15:18;;;;;;;4.20;2.78;;;18.10;65.90;;;19.84;48.17;98113.72;5032807;28;20076;-57
2023/08/11 00:17:47;;;;;;;4.30;2.50;;;18.10;65.50;;;19.83;48.22;98097.72;5032838;28;20056;-58
2023/08/11 00:20:15;;;;;;;4.07;2.75;;;18.10;65.40;;;19.80;48.41;98106.25;5032481;28;20047;-59
2023/08/11 00:22:42;;;;;;;5.88;2.80;;;18.10;65.20;;;19.80;48.45;98112.47;5031369;28;20049;-58
2023/08/11 00:25:10;;;;;;;3.50;3.20;;;18.10;65.50;;;19.77;48.49;98114.75;5032813;28;20060;-59
2023/08/11 00:27:38;;;;;;;4.30;2.90;;;18.10;66.00;;;19.74;48.84;98107.09;5031221;28;20049;-58
2023/08/11 00:30:06;;;;;;;3.60;2.80;;;18.00;66.20;;;19.72;48.49;98107.28;5022866;28;20501;-58
2023/08/11 00:32:34;;;;;;;3.33;2.92;;;18.00;66.10;;;19.70;48.58;98111.19;5031704;28;20056;-57
2023/08/11 00:35:02;;;;;;;3.92;3.20;;;17.90;66.30;;;19.67;49.05;98112.44;5031295;28;20045;-58
2023/08/11 00:37:30;;;;;;;2.90;2.50;;;17.90;66.90;;;19.63;48.86;98106.63;5032469;28;20037;-57
2023/08/11 00:39:58;;;;;;;3.80;2.97;;;17.90;67.00;;;19.61;48.94;98113.28;5030346;28;20053;-58
2023/08/11 00:42:25;;;;;;;3.65;3.00;;;17.80;67.10;;;19.58;49.31;98113.69;5032516;28;20411;-58
2023/08/11 00:44:53;;;;;;;4.05;2.72;;;17.80;67.70;;;19.55;49.34;98111.44;5032303;28;20057;-58
2023/08/11 00:47:21;;;;;;;6.10;3.75;;;17.70;68.20;;;19.53;49.53;98108.94;5030702;28;20061;-58
2023/08/11 00:49:50;;;;;;;3.75;3.17;;;17.70;68.60;;;19.51;49.73;98108.31;5030210;28;20056;-58
2023/08/11 00:52:18;;;;;;;3.42;3.10;;;17.70;69.00;;;19.47;49.90;98115.16;5031024;28;20037;-58
2023/08/11 00:54:46;;;;;;;5.72;3.45;;;17.60;69.00;;;19.44;50.06;98100.22;5014608;28;20045;-58
2023/08/11 00:57:15;;;;;;;3.58;3.25;;;17.60;69.30;;;19.39;50.01;98105.38;5014978;28;20045;-57
2023/08/11 00:59:43;;;;;;;5.50;3.67;;;17.60;69.60;;;19.38;50.07;98103.72;5031638;28;20041;-58
2023/08/11 01:02:11;;;;;;;4.88;3.22;;;17.60;70.60;;;19.37;50.26;98117.44;5031452;28;20072;-58
2023/08/11 01:04:40;;;;;;;3.40;2.70;;;17.60;69.90;;;19.33;50.04;98111.63;5031916;28;20055;-58
2023/08/11 01:07:23;;;;;;;4.28;3.70;;;17.60;70.00;;;19.32;50.13;98120.75;5031754;28;20033;-58
2023/08/11 01:10:21;;;;;;;4.07;3.05;;;17.50;70.00;;;19.30;50.00;98116.59;5014823;28;20050;-58
2023/08/11 01:13:15;;;;;;;2.92;2.45;;;17.50;70.10;;;19.29;50.01;98121.16;5015080;28;20042;-57
2023/08/11 01:16:00;;;;;;;3.23;2.83;;;17.50;70.60;;;19.30;50.22;98120.13;5031326;28;20154;-58
2023/08/11 01:18:28;;;;;;;;;;;17.50;70.70;;;19.28;49.94;98120.31;5025193;28;20524;-57
2023/08/11 01:21:08;;;;;;;4.90;2.72;;;17.40;71.40;;;19.27;50.14;98115.97;5030470;28;19925;-57
2023/08/11 01:23:36;;;;;;;3.33;2.88;;;17.40;70.80;;;19.24;50.30;98113.66;5030806;28;20506;-56
2023/08/11 01:26:04;;;;;;;4.43;2.90;;;17.40;70.60;;;19.22;50.47;98123.84;5029351;28;20402;-55
2023/08/11 01:28:36;;;;;;;4.35;3.13;;;17.40;70.80;;;19.19;50.63;98128.81;5030789;28;20076;-57
2023/08/11 01:31:04;;;;;;;5.32;3.08;;;17.30;71.10;;;19.17;50.80;98128.19;5030409;28;20054;-58
2023/08/11 01:33:31;;;;;;;4.95;2.80;;;17.40;71.10;;;19.13;51.02;98133.16;5022125;28;20045;-58
2023/08/11 01:35:59;;;;;;;3.90;2.83;;;17.30;72.00;;;19.12;50.99;98120.72;5032002;28;20064;-57
2023/08/11 01:38:26;;;;;;;5.47;2.90;;;17.30;71.80;;;19.11;50.97;98127.13;5031337;28;20049;-55
2023/08/11 01:40:54;;;;;;;3.63;3.33;;;17.40;71.70;;;19.10;51.05;98124.66;5030327;28;20045;-54
2023/08/11 01:43:23;;;;;;;3.97;2.65;;;17.30;71.90;;;19.05;51.01;98123.38;5013932;28;20046;-58
2023/08/11 01:45:51;;;;;;;7.18;3.20;;;17.20;71.90;;;19.03;51.10;98119.22;5029710;28;20049;-58
2023/08/11 01:48:20;;;;;;;4.20;2.78;;;17.20;72.00;;;18.99;51.29;98116.09;5030500;28;20517;-57
2023/08/11 01:50:48;;;;;;;4.72;3.15;;;17.20;72.50;;;18.96;51.38;98115.69;5014041;28;20054;-58
2023/08/11 01:53:16;;;;;;;5.65;2.85;;;17.10;73.00;;;18.92;51.54;98115.28;5029625;28;20069;-57
2023/08/11 01:55:47;;;;;;;3.63;3.05;;;17.10;73.20;;;18.89;51.43;98112.97;5022128;28;20046;-57
2023/08/11 01:58:15;;;;;;;4.07;3.30;;;17.10;73.50;;;18.86;51.60;98116.06;5030133;28;20041;-56
2023/08/11 02:00:42;;;;;;;3.95;3.17;;;17.00;73.80;;;18.82;51.66;98110.25;5046357;28;20115;-57
2023/08/11 02:03:10;;;;;;;3.72;2.80;;;17.00;74.00;;;18.79;51.84;98105.22;5030495;28;20053;-57
2023/08/11 02:05:38;;;;;;;4.72;3.15;;;17.00;74.60;;;18.77;51.81;98110.00;5031429;28;20053;-57
2023/08/11 02:08:07;;;;;;;4.03;3.30;;;16.90;74.70;;;18.74;51.91;98106.88;5029318;28;20057;-57
2023/08/11 02:10:34;;;;;;;4.13;2.88;;;16.90;75.10;;;18.72;52.06;98103.56;5031065;28;20258;-56
2023/08/11 02:13:03;;;;;;;4.22;3.05;;;16.90;75.60;;;18.68;52.17;98105.81;5014001;28;20049;-58
2023/08/11 02:15:31;;;;;;;6.60;3.72;;;16.80;75.80;;;18.65;52.07;98112.44;5029580;28;20076;-56
2023/08/11 02:17:58;;;;;;;6.10;3.25;;;16.80;75.80;;;18.64;52.21;98109.94;5013161;28;20524;-58
2023/08/11 02:20:27;;;;;;;4.45;3.38;;;16.80;76.80;;;18.62;52.42;98103.94;5029681;28;20060;-58
2023/08/11 02:22:54;;;;;;;3.65;2.50;;;16.80;76.20;;;18.58;52.60;98108.88;5031164;28;20209;-58
2023/08/11 02:25:22;;;;;;;6.05;3.35;;;16.80;76.60;;;18.55;52.58;98111.97;5028912;28;20052;-57
2023/08/11 02:27:50;;;;;;;4.82;3.05;;;16.70;76.60;;;18.54;52.34;98110.31;5028766;28;20045;-56
2023/08/11 02:30:18;;;;;;;5.68;2.95;;;16.70;76.30;;;18.54;52.43;98113.03;5029289;28;20505;-58
2023/08/11 02:32:46;;;;;;;4.38;3.20;;;16.80;76.00;;;18.59;52.32;98107.03;5031063;28;20053;-58
2023/08/11 02:35:17;;;;;;;3.80;3.40;;;16.80;75.50;;;18.61;52.13;98108.50;5030128;28;20052;-57
2023/08/11 02:37:45;;;;;;;3.42;3.13;;;16.90;75.00;;;18.62;52.06;98110.16;5013949;28;20049;-58
2023/08/11 02:40:14;;;;;;;5.63;3.72;;;16.90;74.70;;;18.66;51.91;98105.19;5029026;28;20421;-58
2023/08/11 02:42:48;;;;;;;4.72;3.33;;;17.00;74.50;;;18.66;52.02;98103.31;5030085;28;20049;-58
2023/08/11 02:45:16;;;;;;;5.22;3.20;;;17.00;74.20;;;18.65;51.97;98104.38;5029795;28;20056;-57
2023/08/11 02:47:43;;;;;;;3.42;2.83;;;17.00;74.30;;;18.67;51.90;98098.78;5046343;28;20049;-56
2023/08/11 02:50:13;;;;;;;7.30;3.63;;;17.00;74.30;;;18.65;52.00;98096.28;5029164;28;20060;-57
2023/08/11 02:52:41;;;;;;;3.40;2.90;;;16.90;74.40;;;18.64;52.10;98110.78;5034614;28;20048;-57
2023/08/11 02:55:09;;;;;;;5.72;2.95;;;16.90;75.00;;;18.63;52.11;98108.28;5034579;28;20042;-57
2023/08/11 02:57:37;;;;;;;3.33;2.92;;;16.90;75.20;;;18.59;52.27;98099.78;5033671;28;20056;-58
2023/08/11 03:00:15;;;;;;;5.18;2.90;;;16.90;75.50;;;18.61;52.38;98095.03;5032146;28;20045;-56
2023/08/11 03:02:47;;;;;;;5.63;3.45;;;16.90;75.40;;;18.62;52.47;98103.94;5016518;28;20054;-54
2023/08/11 03:05:16;;;;;;;5.22;3.65;;;16.90;75.80;;;18.60;52.68;98097.91;5049198;28;20053;-55
2023/08/11 03:07:48;;;;;;;4.43;3.47;;;16.80;76.00;;;18.56;52.74;98094.78;5032992;28;20076;-56
2023/08/11 03:10:16;;;;;;;3.90;3.08;;;16.80;76.20;;;18.55;52.42;98100.38;5033532;28;20041;-57
2023/08/11 03:12:44;;;;;;;4.90;3.33;;;16.80;75.80;;;18.52;52.61;98098.91;5016268;28;20042;-54
2023/08/11 03:15:12;;;;;;;4.47;3.20;;;16.80;75.90;;;18.49;52.59;98102.00;5033998;28;20045;-58
2023/08/11 03:17:39;;;;;;;7.95;3.00;;;16.70;76.10;;;18.47;52.76;98101.38;5033005;28;20041;-57
2023/08/11 03:20:15;;;;;;;3.58;2.85;;;16.70;76.30;;;18.42;52.93;98101.97;5032044;28;20049;-58
2023/08/11 03:22:45;;;;;;;4.38;2.85;;;16.60;77.00;;;18.39;53.01;98096.16;5032667;28;20536;-57
2023/08/11 03:25:16;;;;;;;3.67;3.15;;;16.50;77.80;;;18.37;53.17;98096.34;5025263;28;20068;-57
2023/08/11 03:27:44;;;;;;;4.35;3.00;;;16.50;78.10;;;18.35;53.08;98095.72;5032839;28;20420;-58
2023/08/11 03:30:22;;;;;;;5.43;3.20;;;16.50;78.30;;;18.32;53.09;98097.97;5033140;28;20037;-53
2023/08/11 03:32:53;;;;;;;4.05;3.10;;;16.50;78.00;;;18.33;52.88;98100.47;5032030;28;20493;-56
2023/08/11 03:35:26;;;;;;;4.53;3.45;;;16.50;77.50;;;18.33;52.94;98097.78;5033237;28;20493;-57
2023/08/11 03:37:54;;;;;;;4.63;3.40;;;16.60;77.20;;;18.34;53.04;98094.06;5032155;28;20489;-55
2023/08/11 03:40:22;;;;;;;5.03;3.42;;;16.60;77.50;;;18.35;53.10;98100.28;5032416;28;20425;-57
2023/08/11 03:42:53;;;;;;;5.25;3.95;;;16.60;77.20;;;18.35;53.17;98097.59;5048984;28;20078;-56
2023/08/11 03:45:21;;;;;;;4.30;3.45;;;16.60;77.40;;;18.35;53.05;98089.50;5033451;28;20049;-57
2023/08/11 03:47:49;;;;;;;4.55;3.08;;;16.60;77.10;;;18.32;53.24;98088.06;5033563;28;20493;-54
2023/08/11 03:50:21;;;;;;;3.83;2.78;;;16.60;77.20;;;18.30;53.00;98084.72;5031535;28;20056;-57
2023/08/11 03:52:48;;;;;;;4.95;3.30;;;16.50;77.30;;;18.28;53.11;98092.16;5033360;28;20045;-56
2023/08/11 03:55:16;;;;;;;3.30;2.85;;;16.50;77.90;;;18.25;53.25;98095.25;5032275;28;20048;-58
2023/08/11 03:57:45;;;;;;;3.85;3.17;;;16.50;78.00;;;18.24;53.19;98102.53;5031747;28;20041;-56
2023/08/11 04:00:16;;;;;;;3.72;3.20;;;16.40;78.10;;;18.20;53.39;98101.22;5031485;28;20046;-57
2023/08/11 04:02:50;;;;;;;4.70;3.28;;;16.40;78.30;;;18.19;53.31;98104.16;5030723;28;20049;-57
2023/08/11 04:05:19;;;;;;;4.93;3.70;;;16.40;78.40;;;18.17;53.50;98095.44;5032359;28;20517;-57
2023/08/11 04:07:46;;;;;;;4.90;3.63;;;16.40;78.50;;;18.16;53.55;98097.28;5033271;28;20045;-57
2023/08/11 04:10:15;;;;;;;5.40;3.63;;;16.30;78.40;;;18.14;53.51;98101.22;5014418;28;20053;-57
2023/08/11 04:12:42;;;;;;;5.28;2.95;;;16.30;78.50;;;18.12;53.39;98096.00;5031419;28;20056;-58
2023/08/11 04:15:10;;;;;;;5.55;3.88;;;16.30;78.30;;;18.12;53.53;98098.69;5031443;28;20045;-57
2023/08/11 04:17:38;;;;;;;4.60;3.25;;;16.40;78.10;;;18.14;53.47;98098.50;5048362;28;20048;-55
2023/08/11 04:20:12;;;;;;;5.07;3.50;;;16.40;77.80;;;18.14;53.26;98098.50;5031139;28;20041;-56
2023/08/11 04:22:41;;;;;;;4.93;3.78;;;16.40;77.60;;;18.15;53.34;98100.19;5031356;28;20049;-57
2023/08/11 04:25:12;;;;;;;4.85;3.72;;;16.50;77.60;;;18.18;53.45;98106.00;5032508;28;20512;-55
2023/08/11 04:27:43;;;;;;;4.88;3.60;;;16.50;77.30;;;18.20;53.45;98105.78;5031798;28;20052;-55
2023/08/11 04:30:12;;;;;;;4.18;3.17;;;16.50;77.20;;;18.20;53.41;98100.41;5022538;28;20034;-57
2023/08/11 04:32:43;;;;;;;5.82;4.18;;;16.50;77.20;;;18.21;53.46;98104.78;5030520;28;20041;-54
2023/08/11 04:35:11;;;;;;;6.53;3.90;;;16.50;77.30;;;18.20;53.58;98098.53;5031665;28;20513;-58
2023/08/11 04:37:41;;;;;;;11.55;3.92;;;16.50;77.40;;;18.22;53.52;98104.59;5031821;28;20041;-56
2023/08/11 04:40:13;;;;;;;4.50;4.05;;;16.50;77.80;;;18.22;53.52;98095.66;5014721;28;20038;-55
2023/08/11 04:42:43;;;;;;;6.32;3.60;;;16.50;77.80;;;18.19;53.69;98102.28;5031842;28;20046;-57
2023/08/11 04:45:17;;;;;;;4.18;3.53;;;16.40;78.10;;;18.18;53.76;98099.78;5031002;28;20050;-57
2023/08/11 04:47:45;;;;;;;5.80;3.70;;;16.40;78.50;;;18.17;53.91;98098.13;5030648;28;20037;-56
2023/08/11 04:50:18;;;;;;;4.85;3.80;;;16.50;78.90;;;18.18;53.98;98103.28;5029714;28;20057;-55
2023/08/11 04:52:49;;;;;;;4.15;3.60;;;16.50;78.90;;;18.20;54.04;98103.94;5023315;28;20050;-55
2023/08/11 04:55:16;;;;;;;4.03;3.63;;;16.50;79.00;;;18.22;54.07;98099.19;5030997;28;20405;-57
2023/08/11 04:57:44;;;;;;;5.60;3.83;;;16.60;78.60;;;18.26;54.23;98100.47;5031434;28;20045;-55
2023/08/11 05:00:16;;;;;;;4.95;3.67;;;16.70;78.50;;;18.31;54.11;98105.25;5031096;28;20045;-56
2023/08/11 05:02:45;;;;;;;5.20;3.97;;;16.80;78.00;;;18.36;53.94;98100.09;5031785;28;20038;-55
2023/08/11 05:05:13;;;;;;;4.68;3.92;;;16.80;77.70;;;18.40;54.12;98103.22;5030881;28;20037;-57
2023/08/11 05:07:41;;;;;;;6.15;4.40;;;16.90;77.60;;;18.43;53.96;98105.50;5032007;28;20049;-56
2023/08/11 05:10:09;;;;;;;5.88;3.92;;;16.90;77.50;;;18.48;53.97;98116.53;5030316;28;20547;-57
2023/08/11 05:12:38;;;;;;;4.45;3.97;;;16.90;77.40;;;18.51;54.17;98113.41;5031865;28;20045;-57
2023/08/11 05:15:06;;;;;;;6.43;4.15;;;17.00;77.80;;;18.55;54.06;98119.25;5030625;28;20037;-54
2023/08/11 05:17:34;;;;;;;5.13;3.53;;;17.00;77.80;;;18.60;54.07;98120.31;5023888;28;20273;-58
2023/08/11 05:20:05;;;;;;;5.65;3.55;;;17.10;77.50;;;18.64;54.02;98123.44;5029878;28;20041;-58
2023/08/11 05:22:35;;;;;;;4.57;3.35;;;17.10;77.40;;;18.67;53.92;98129.25;5022659;28;20082;-58
2023/08/11 05:25:04;;;;;;;5.05;3.25;;;17.20;76.90;;;18.70;54.04;98128.84;5030564;28;20052;-58
2023/08/11 05:27:32;;;;;;;4.90;3.90;;;17.20;76.80;;;18.75;53.91;98133.66;5027541;28;20049;-59
2023/08/11 05:30:00;;;;;;;5.82;4.22;;;17.20;76.80;;;18.78;53.90;98137.81;5030075;28;20045;-58
2023/08/11 05:32:28;;;;;;;5.57;3.83;;;17.20;76.80;;;18.78;53.89;98135.94;5031423;28;20045;-59
2023/08/11 05:34:56;;;;;;;4.28;3.60;;;17.30;77.00;;;18.81;53.98;98135.56;5030477;28;20033;-59
2023/08/11 05:37:24;;;;;;;4.38;3.17;;;17.30;76.90;;;18.84;53.91;98140.56;5031999;28;20046;-56
2023/08/11 05:39:53;;;;;;;5.05;3.47;;;17.30;77.00;;;18.88;53.83;98141.81;5031033;28;20041;-58
2023/08/11 05:42:21;;;;;;;4.90;3.60;;;17.40;76.70;;;18.92;54.00;98141.41;5030017;28;20042;-56
2023/08/11 05:44:49;;;;;;;4.88;3.63;;;17.50;76.90;;;18.96;54.23;98148.91;5031444;28;20045;-55
2023/08/11 05:47:17;;;;;;;4.22;3.67;;;17.50;77.20;;;18.99;54.45;98150.34;5031261;28;20034;-59
2023/08/11 05:49:44;;;;;;;6.97;4.60;;;17.50;77.60;;;19.03;54.85;98147.03;5029793;28;20053;-58
2023/08/11 05:52:12;;;;;;;8.07;4.97;;;17.60;78.30;;;19.06;55.39;98140.44;5031133;28;20041;-56
2023/08/11 05:54:40;;;;;;;5.03;4.30;;;17.60;80.00;;;19.11;55.46;98150.59;5030992;28;20038;-55
2023/08/11 05:57:07;;;;;;;6.65;5.78;;;17.60;80.70;;;19.15;55.76;98138.34;5030946;28;20037;-55
2023/08/11 05:59:35;;;;;;;7.78;5.03;;;17.70;81.30;;;19.17;55.82;98139.81;5030791;28;20488;-57
2023/08/11 06:02:03;;;;;;;7.55;5.30;;;17.70;82.10;;;19.21;55.59;98140.22;5031313;28;20042;-58
2023/08/11 06:04:51;;;;;;;5.97;4.90;;;17.70;81.80;;;19.21;55.60;98140.22;5031096;28;20531;-56
2023/08/11 06:07:18;;;;;;;8.38;5.10;;;17.80;82.30;;;19.25;55.70;98142.34;5031016;28;20045;-59
2023/08/11 06:09:46;;;;;;;5.20;4.50;;;17.80;81.50;;;19.29;55.83;98140.06;5030432;28;20520;-57
2023/08/11 06:12:13;;;;;;;7.20;4.78;;;17.90;82.00;;;19.34;55.78;98142.13;5031097;28;20045;-53
2023/08/11 06:14:41;;;;;;;6.97;5.55;;;17.90;82.10;;;19.38;55.94;98140.69;5030341;28;20069;-57
2023/08/11 06:17:09;;;;;;;8.85;5.13;;;17.90;82.60;;;19.42;56.00;98142.75;5030997;28;20041;-59
2023/08/11 06:19:39;;;;;;;5.57;4.70;;;18.00;82.40;;;19.47;56.09;98144.84;5022783;28;20044;-57
2023/08/11 06:22:07;;;;;;;5.90;4.72;;;18.00;82.40;;;19.51;56.16;98137.19;5030832;28;20413;-57
2023/08/11 06:24:35;;;;;;;10.18;4.97;;;18.10;82.40;;;19.55;56.03;98144.66;5030979;28;20408;-58
2023/08/11 06:27:02;;;;;;;9.57;4.60;;;18.10;82.30;;;19.60;56.15;98150.28;5034455;28;20273;-58
2023/08/11 06:29:30;;;;;;;8.70;4.43;;;18.20;82.20;;;19.65;56.16;98157.75;5034467;28;20045;-58
2023/08/11 06:31:58;;;;;;;8.18;4.53;;;18.30;82.20;;;19.68;55.92;98136.56;5033986;28;20041;-58
2023/08/11 06:34:25;;;;;;;7.70;3.78;;;18.30;81.60;;;19.75;55.46;98150.09;5034650;28;20053;-60
2023/08/11 06:36:53;;;;;;;9.18;4.15;;;18.40;80.40;;;19.80;54.98;98149.47;5033520;28;20045;-59
2023/08/11 06:39:21;;;;;;;4.32;3.33;;;18.50;79.30;;;19.84;55.33;98146.13;5032438;28;20056;-60
2023/08/11 06:41:48;;;;;;;5.32;3.70;;;18.60;79.00;;;19.90;55.29;98152.59;5034296;28;20428;-59
2023/08/11 06:44:16;;;;;;;5.28;4.07;;;18.70;78.70;;;19.97;54.90;98149.91;5034588;28;20056;-59
2023/08/11 06:46:44;;;;;;;6.38;3.85;;;18.70;78.20;;;20.01;54.98;98153.84;5034547;28;20045;-57
2023/08/11 06:49:11;;;;;;;4.45;3.78;;;18.80;78.00;;;20.05;54.86;98152.38;5033331;28;20049;-57
2023/08/11 06:51:39;;;;;;;5.60;3.33;;;18.80;77.50;;;20.11;54.77;98161.50;5033198;28;20041;-58
2023/08/11 06:54:06;;;;;;;4.93;3.20;;;18.90;77.20;;;20.16;54.50;98156.28;5034457;28;20050;-60
2023/08/11 06:56:34;;;;;;;10.70;4.07;;;18.90;76.90;;;20.21;54.50;98149.22;5033917;28;20056;-60
2023/08/11 06:59:02;;;;;;;5.97;3.58;;;19.00;76.90;;;20.26;54.51;98151.31;5034316;28;20046;-61
2023/08/11 07:01:29;;;;;;;4.50;3.90;;;19.10;77.00;;;20.33;54.60;98151.28;5034117;28;20057;-60
2023/08/11 07:03:57;;;;;;;4.72;3.75;;;19.10;77.30;;;20.37;54.78;98153.34;5033129;28;20101;-60
2023/08/11 07:06:28;;;;;;;4.82;3.45;;;19.20;77.20;;;20.44;54.84;98151.44;5032773;28;20041;-60
2023/08/11 07:08:56;;;;;;;6.90;3.42;;;19.30;76.90;;;20.50;54.97;98148.94;5034014;28;20405;-60
2023/08/11 07:11:23;;;;;;;5.05;3.50;;;19.30;77.00;;;20.56;54.57;98150.81;5033921;28;20048;-60
2023/08/11 07:13:51;;;;;;;9.55;3.80;;;19.40;77.00;;;20.62;54.84;98150.78;5034110;28;20497;-60
2023/08/11 07:16:19;;;;;;;8.40;3.78;;;19.40;76.90;;;20.67;54.39;98149.34;5032428;28;20060;-61
2023/08/11 07:18:46;;;;;;;5.53;3.15;;;19.50;76.60;;;20.74;54.52;98150.13;5033980;28;20033;-60
2023/08/11 07:21:14;;;;;;;6.63;3.47;;;19.60;76.30;;;20.80;54.04;98157.38;5033914;28;20037;-58
2023/08/11 07:23:41;;;;;;;6.70;3.90;;;19.60;76.20;;;20.85;54.55;98153.00;5033760;28;20044;-57
2023/08/11 07:26:09;;;;;;;6.28;3.00;;;19.70;76.10;;;20.93;54.00;98159.22;5033866;28;20077;-58
2023/08/11 07:28:37;;;;;;;6.03;4.05;;;19.80;75.70;;;20.98;54.13;98159.41;5032672;28;20053;-58
2023/08/11 07:31:04;;;;;;;4.22;3.63;;;19.80;75.40;;;21.04;53.47;98164.78;5032939;28;20044;-58
2023/08/11 07:33:32;;;;;;;6.63;3.83;;;19.90;74.80;;;21.10;53.61;98156.84;5032704;28;20410;-57
2023/08/11 07:35:59;;;;;;;5.68;3.22;;;19.90;74.00;;;21.16;53.12;98164.94;5033303;28;20041;-58
2023/08/11 07:38:27;;;;;;;6.78;3.47;;;20.00;73.70;;;21.21;53.27;98161.59;5031831;28;20049;-58
2023/08/11 07:40:55;;;;;;;5.93;3.60;;;20.00;73.50;;;21.27;53.09;98165.28;5033574;28;20044;-59
2023/08/11 07:43:22;;;;;;;5.95;3.35;;;20.10;73.30;;;21.33;52.95;98161.72;5033500;28;20045;-58
2023/08/11 07:45:50;;;;;;;6.63;3.13;;;20.20;73.30;;;;;;5033744;28;20551;-58
2023/08/11 07:48:18;;;;;;;5.85;3.78;;;20.30;73.20;;;21.43;53.02;98171.03;5032746;28;20046;-59
2023/08/11 07:50:46;;;;;;;7.93;3.33;;;20.30;73.00;;;21.49;52.65;98177.47;5033086;28;20050;-59
2023/08/11 07:53:13;;;;;;;7.43;3.90;;;20.30;72.60;;;21.53;52.75;98170.56;5033714;28;20052;-58
2023/08/11 07:55:41;;;;;;;5.95;4.00;;;20.40;72.70;;;21.60;52.45;98174.06;5033296;28;20042;-58
2023/08/11 07:58:09;;;;;;;4.53;2.83;;;20.40;72.50;;;21.65;52.87;98178.00;5032262;28;20046;-59
2023/08/11 08:00:37;;;;;;;6.70;3.72;;;20.50;72.50;;;21.71;52.88;98177.94;5032959;28;20041;-59
2023/08/11 08:03:04;;;;;;;4.05;3.47;;;20.60;72.50;;;21.76;52.64;98180.81;5033355;28;20493;-58
2023/08/11 08:05:32;;;;;;;5.15;2.97;;;20.60;72.60;;;21.82;52.76;98188.06;5033224;28;20057;-59
2023/08/11 08:07:59;;;;;;;6.03;3.13;;;20.70;72.20;;;21.88;52.35;98183.66;5033005;28;20535;-58
2023/08/11 08:10:27;;;;;;;5.32;3.30;;;20.70;72.00;;;21.94;52.15;98188.19;5032910;28;20053;-59
2023/08/11 08:12:55;;;;;;;8.50;4.07;;;20.80;71.90;;;22.01;52.42;98194.38;5033004;28;20512;-59
2023/08/11 08:15:24;;;;;;;5.47;3.92;;;20.90;72.30;;;22.07;52.37;98189.13;5033142;28;20504;-59
2023/08/11 08:17:52;;;;;;;7.97;4.45;;;20.90;71.70;;;22.11;52.53;98198.47;5024171;28;20390;-59
2023/08/11 08:20:20;;;;;;;5.55;3.53;;;20.90;71.50;;;22.17;52.27;98195.69;5031512;28;20046;-59
2023/08/11 08:22:48;;;;;;;5.72;3.22;;;21.10;71.80;;;22.24;52.12;98192.94;5031900;28;20045;-58
2023/08/11 08:25:15;;;;;;;4.63;3.83;;;21.10;71.50;;;22.32;52.04;98186.44;5032830;28;20069;-58
2023/08/11 08:27:43;;;;;;;6.68;3.58;;;21.20;71.50;;;22.41;51.79;98193.22;5029218;28;20053;-58
2023/08/11 08:30:12;;;;;;;4.07;3.42;;;21.30;71.20;;;22.50;52.04;98193.75;5032362;28;20038;-59
2023/08/11 08:32:41;;;;;;;4.68;3.30;;;21.40;71.50;;;22.57;51.99;98195.34;5032545;28;20497;-58
2023/08/11 08:35:10;;;;;;;7.20;4.47;;;21.50;70.80;;;22.63;51.48;98187.38;5033049;28;20509;-58
2023/08/11 08:37:38;;;;;;;5.53;3.90;;;21.50;69.90;;;22.66;51.38;98181.47;5032588;28;20057;-59
2023/08/11 08:40:08;;;;;;;5.57;3.15;;;21.50;69.70;;;22.69;51.60;98184.56;5031000;28;20052;-58
2023/08/11 08:42:35;;;;;;;4.90;3.88;;;21.60;69.90;;;22.76;51.69;98179.06;5031335;28;20441;-58
2023/08/11 08:45:04;;;;;;;6.10;3.83;;;21.70;70.30;;;22.84;51.58;98183.34;5031162;28;20045;-58
2023/08/11 08:47:34;;;;;;;5.57;4.10;;;21.70;70.00;;;22.88;51.41;98174.53;5031001;28;20440;-59
2023/08/11 08:50:06;;;;;;;4.45;3.60;;;21.80;70.00;;;22.96;51.13;98185.09;5030336;28;20104;-58
2023/08/11 08:52:34;;;;;;;5.82;3.42;;;21.90;69.40;;;22.99;51.15;98181.06;5031165;28;20401;-59
2023/08/11 08:55:03;;;;;;;6.40;3.90;;;21.90;69.20;;;23.06;50.79;98178.31;5032315;28;20041;-58
2023/08/11 08:57:30;;;;;;;5.30;3.20;;;21.90;68.30;;;23.12;50.36;98180.94;5031941;28;20041;-58
2023/08/11 08:59:58;;;;;;;5.18;3.35;;;22.00;67.70;;;23.16;49.60;98179.41;5031911;28;20048;-59
2023/08/11 09:02:27;;;;;;;6.40;3.28;;;22.10;66.20;;;23.18;49.81;98176.47;5032227;28;20045;-58
2023/08/11 09:04:55;;;;;;;5.88;3.50;;;22.10;66.20;;;23.20;50.05;98177.06;5023216;28;20045;-58
2023/08/11 09:07:24;;;;;;;7.32;4.07;;;22.10;67.10;;;23.28;49.88;98184.06;5031946;28;20049;-59
2023/08/11 09:09:51;;;;;;;5.07;3.20;;;22.20;67.00;;;23.34;50.15;98172.28;5031541;28;20041;-59
2023/08/11 09:12:19;;;;;;;5.00;4.00;;;22.30;67.40;;;23.45;49.65;98174.22;5032122;28;20049;-59
2023/08/11 09:14:47;;;;;;;6.15;3.47;;;22.40;66.60;;;23.49;49.45;98175.41;5032031;28;20056;-59
2023/08/11 09:17:16;;;;;;;4.38;3.45;;;22.40;65.80;;;23.53;49.16;98176.59;5030526;28;20037;-59
2023/08/11 09:19:51;;;;;;;6.85;4.25;;;22.40;65.70;;;23.58;49.36;98165.88;5030206;28;20072;-60
2023/08/11 09:22:25;;;;;;;6.75;3.92;;;22.50;65.60;;;23.66;49.03;98169.31;5031919;28;20501;-59
2023/08/11 09:24:55;;;;;;;5.85;4.70;;;22.50;64.60;;;23.69;48.84;98166.97;5030652;28;20493;-59
2023/08/11 09:27:23;;;;;;;4.75;4.25;;;22.60;65.00;;;23.69;48.73;98172.41;5030004;28;20060;-59
2023/08/11 09:29:50;;;;;;;8.00;4.10;;;22.60;64.70;;;23.74;48.64;98166.25;5031799;28;20053;-59
2023/08/11 09:32:22;;;;;;;6.22;4.00;;;22.60;64.70;;;23.77;48.61;98172.06;5030768;28;20057;-59
2023/08/11 09:34:53;;;;;;;5.85;5.20;;;22.70;64.30;;;23.83;49.01;98164.91;5031690;28;20038;-59
2023/08/11 09:37:21;;;;;;;6.93;4.47;;;22.80;65.20;;;23.92;48.89;98165.38;5031581;28;20048;-60
2023/08/11 09:39:54;;;;;;;5.25;4.50;;;22.90;65.00;;;23.99;48.79;98163.38;5030037;28;20045;-60
2023/08/11 09:42:26;;;;;;;7.10;4.07;;;22.90;64.50;;;24.03;48.53;98171.91;5031619;28;20044;-59
2023/08/11 09:44:54;;;;;;;6.63;5.33;;;22.90;63.70;;;24.08;48.49;98167.41;5029768;28;20037;-59
2023/08/11 09:47:22;;;;;;;6.80;5.10;;;23.00;64.10;;;24.12;48.30;98174.03;5026642;28;20060;-60
2023/08/11 09:49:50;;;;;;;5.18;4.60;;;23.10;63.70;;;24.15;48.14;98168.09;5030894;28;20049;-59
2023/08/11 09:52:18;;;;;;;8.45;5.05;;;23.10;63.70;;;24.20;47.82;98164.69;5029888;28;20045;-59
2023/08/11 09:54:49;;;;;;;5.60;4.57;;;23.10;63.50;;;24.24;48.44;98167.75;5030052;28;20053;-59
2023/08/11 09:57:19;;;;;;;6.63;5.15;;;23.10;63.40;;;24.30;47.75;98175.78;5030229;28;20037;-60
2023/08/11 09:59:48;;;;;;;6.63;5.38;;;23.30;62.70;;;24.35;47.89;98172.38;5029832;28;20049;-60
2023/08/11 10:02:20;;;;;;;7.68;5.68;;;23.30;62.70;;;24.38;47.35;98171.88;5031296;28;20037;-60
2023/08/11 10:04:59;;;;;;;7.30;6.03;;;23.50;61.70;;;24.41;47.84;98173.28;5030476;28;20389;-59
2023/08/11 10:07:34;;;;;;;8.07;5.93;;;23.50;62.00;;;24.46;47.85;98174.25;5029992;28;20049;-60
2023/08/11 10:10:17;;;;;;;7.15;6.07;;;23.50;62.50;;;24.50;48.02;98172.69;5022755;28;20041;-60
2023/08/11 10:13:07;;;;;;;6.72;5.03;;;23.60;61.70;;;24.57;47.44;98172.63;5030064;28;20041;-60
2023/08/11 10:15:35;;;;;;;7.03;5.47;;;23.70;60.70;;;24.62;47.24;98166.44;5030933;28;20050;-60
2023/08/11 10:18:06;;;;;;;8.27;5.43;;;23.70;61.40;;;24.69;47.45;98178.03;5022079;28;20050;-60
2023/08/11 10:20:34;;;;;;;7.90;5.82;;;23.80;60.90;;;24.75;47.12;98177.91;5029689;28;20117;-59
2023/08/11 10:23:02;;;;;;;10.93;5.80;;;23.90;60.40;;;24.84;47.24;98175.66;5029437;28;20054;-60
2023/08/11 10:25:31;;;;;;;18.85;7.18;;;24.00;60.60;;;24.91;46.97;98168.16;5029846;28;20417;-60
2023/08/11 10:28:00;;;;;;;10.57;5.38;;;24.10;60.60;;;24.96;46.95;98170.16;5029981;28;20409;-60